Data for 02/05/2014

Time Sea-Level Adjusted Pressure Absolute Pressure Temperature Relative Humidity Dew Point   
(mb) (inHg) (mb) (inHg) (C) (F) (%) (C) (F)
00:05 1025 30.27 855 25.25 -24.2 -11.5 62 -29.5 -21.1
00:10 1025 30.27 855 25.25 -24.2 -11.5 62 -29.5 -21.1
00:15 1026 30.3 855 25.25 -24.2 -11.5 62 -29.5 -21.1
00:20 1026 30.3 855 25.25 -24.2 -11.6 62 -29.6 -21.3
00:25 1026 30.3 855 25.25 -24.2 -11.6 62 -29.7 -21.4
00:30 1026 30.3 855 25.25 -24.3 -11.7 62 -29.5 -21.2
00:35 1026 30.3 855 25.25 -24.4 -11.8 63 -29.6 -21.2
00:40 1026 30.3 855 25.25 -24.4 -11.8 63 -29.6 -21.3
00:45 1026 30.3 855 25.25 -24.4 -11.9 63 -29.6 -21.3
00:50 1026 30.3 855 25.25 -24.4 -12 62 -29.7 -21.5
00:55 1026 30.3 855 25.25 -24.5 -12.1 62 -29.9 -21.7
01:00 1026 30.3 855 25.25 -24.5 -12.1 62 -29.9 -21.8
01:05 1026 30.3 855 25.25 -24.5 -12.2 62 -29.9 -21.8
01:10 1026 30.3 855 25.25 -24.6 -12.2 62 -29.9 -21.9
01:15 1026 30.3 855 25.25 -24.6 -12.2 61 -30 -22
01:20 1026 30.3 855 25.25 -24.5 -12.1 61 -30.1 -22.1
01:25 1026 30.3 855 25.25 -24.5 -12.1 61 -30 -21.9
01:30 1026 30.3 855 25.25 -24.5 -12.1 60 -30.1 -22.2
01:35 1026 30.3 855 25.25 -24.5 -12.1 61 -30 -22
01:40 1026 30.3 855 25.25 -24.5 -12.1 61 -30 -22
01:45 1026 30.3 855 25.25 -24.5 -12.1 62 -29.9 -21.9
01:50 1026 30.3 855 25.25 -24.6 -12.2 62 -29.9 -21.8
01:55 1026 30.3 855 25.25 -24.6 -12.3 62 -29.9 -21.9
02:00 1026 30.3 855 25.25 -24.6 -12.3 62 -29.9 -21.9
02:05 1026 30.3 855 25.25 -24.6 -12.3 62 -30 -21.9
02:10 1026 30.3 855 25.25 -24.7 -12.4 62 -29.9 -21.9
02:15 1026 30.3 855 25.25 -24.7 -12.4 62 -30 -22
02:20 1026 30.3 855 25.25 -24.7 -12.4 62 -30 -22.1
02:25 1026 30.3 855 25.25 -24.7 -12.5 62 -30 -22.1
02:30 1026 30.3 855 25.25 -24.7 -12.5 62 -30 -22.1
02:35 1026 30.3 855 25.25 -24.7 -12.5 62 -30 -22.1
02:40 1026 30.3 855 25.25 -24.8 -12.6 63 -30 -22
02:45 1026 30.3 855 25.25 -24.8 -12.6 63 -29.9 -21.8
02:50 1026 30.3 856 25.28 -24.8 -12.6 63 -29.8 -21.7
02:55 1026 30.3 856 25.28 -24.8 -12.6 64 -29.8 -21.7
03:00 1026 30.3 856 25.28 -24.8 -12.7 64 -29.8 -21.7
03:05 1026 30.3 855 25.25 -24.8 -12.6 63 -29.9 -21.9
03:10 1026 30.3 855 25.25 -24.8 -12.7 62 -30.2 -22.3
03:15 1026 30.3 856 25.28 -24.8 -12.7 62 -30.1 -22.1
03:20 1026 30.3 856 25.28 -24.8 -12.7 62 -30.1 -22.2
03:25 1026 30.3 856 25.28 -24.9 -12.8 62 -30.3 -22.5
03:30 1026 30.3 856 25.28 -24.9 -12.8 62 -30.3 -22.5
03:35 1026 30.3 856 25.28 -24.9 -12.9 62 -30.3 -22.5
03:40 1026 30.3 856 25.28 -25 -13 61 -30.4 -22.7
03:45 1026 30.3 856 25.28 -25 -13.1 62 -30.4 -22.7
03:50 1026 30.3 856 25.28 -25.1 -13.1 61 -30.5 -23
03:55 1026 30.3 856 25.28 -25.1 -13.1 61 -30.5 -23
04:00 1026 30.3 856 25.28 -25.1 -13.2 61 -30.5 -22.9
04:05 1027 30.33 856 25.28 -25.1 -13.2 61 -30.6 -23
04:10 1027 30.33 856 25.28 -25.1 -13.2 61 -30.6 -23.1
04:15 1027 30.33 856 25.28 -25.1 -13.2 61 -30.7 -23.2
04:20 1026 30.3 856 25.28 -25.2 -13.3 60 -30.7 -23.3
04:25 1027 30.33 856 25.28 -25.2 -13.3 61 -30.7 -23.2
04:30 1026 30.3 856 25.28 -25.2 -13.4 60 -30.8 -23.5
04:35 1027 30.33 856 25.28 -25.2 -13.4 61 -30.8 -23.4
04:40 1027 30.33 856 25.28 -25.3 -13.6 61 -30.8 -23.5
04:45 1027 30.33 856 25.28 -25.4 -13.7 61 -30.9 -23.6
04:50 1027 30.33 856 25.28 -25.4 -13.7 61 -30.9 -23.7
04:55 1027 30.33 856 25.28 -25.5 -13.8 61 -31 -23.7
05:00 1027 30.33 856 25.28 -25.5 -13.9 61 -31 -23.8
05:05 1027 30.33 856 25.28 -25.5 -14 61 -31 -23.9
05:10 1027 30.33 856 25.28 -25.6 -14 61 -31 -23.9
05:15 1027 30.33 856 25.28 -25.6 -14 61 -31.1 -23.9
05:20 1027 30.33 856 25.28 -25.6 -14 60 -31.1 -24
05:25 1027 30.33 856 25.28 -25.6 -14 61 -31.1 -24
05:30 1027 30.33 856 25.28 -25.6 -14 60 -31.2 -24.1
05:35 1027 30.33 856 25.28 -25.6 -14 61 -31.1 -24
05:40 1027 30.33 856 25.28 -25.6 -14 61 -31.1 -24
05:45 1027 30.33 856 25.28 -25.6 -14 61 -31.1 -24
05:50 1027 30.33 856 25.28 -25.6 -14.1 60 -31.2 -24.1
05:55 1027 30.33 856 25.28 -25.6 -14 61 -31 -23.7
06:00 1027 30.33 856 25.28 -25.6 -14.1 62 -30.9 -23.6
06:05 1027 30.33 856 25.28 -25.6 -14.2 63 -30.8 -23.4
06:10 1027 30.33 856 25.28 -25.6 -14.2 63 -30.8 -23.4
06:15 1027 30.33 856 25.28 -25.7 -14.2 62 -30.9 -23.7
06:20 1027 30.33 856 25.28 -25.7 -14.2 62 -30.9 -23.6
06:25 1027 30.33 856 25.28 -25.7 -14.2 62 -31 -23.8
06:30 1027 30.33 856 25.28 -25.7 -14.2 61 -31.2 -24.1
06:35 1027 30.33 856 25.28 -25.7 -14.2 60 -31.3 -24.3
06:40 1027 30.33 856 25.28 -25.7 -14.2 60 -31.3 -24.3
06:45 1027 30.33 856 25.28 -25.6 -14.2 60 -31.2 -24.2
06:50 1027 30.33 856 25.28 -25.7 -14.2 60 -31.4 -24.4
06:55 1027 30.33 856 25.28 -25.7 -14.2 60 -31.3 -24.4
07:00 1027 30.33 856 25.28 -25.6 -14.1 59 -31.4 -24.5
07:05 1027 30.33 856 25.28 -25.6 -14.1 59 -31.4 -24.5
07:10 1027 30.33 856 25.28 -25.6 -14.2 60 -31.4 -24.5
07:15 1027 30.33 856 25.28 -25.6 -14.1 60 -31.3 -24.4
07:20 1027 30.33 856 25.28 -25.6 -14 60 -31.3 -24.3
07:25 1027 30.33 856 25.28 -25.6 -14 61 -31.1 -24
07:30 1027 30.33 856 25.28 -25.6 -14 61 -31 -23.8
07:35 1027 30.33 856 25.28 -25.6 -14.1 61 -31 -23.9
07:40 1027 30.33 856 25.28 -25.6 -14.1 63 -30.8 -23.4
07:45 1027 30.33 856 25.28 -25.6 -14.1 63 -30.8 -23.4
07:50 1027 30.33 856 25.28 -25.7 -14.2 63 -30.8 -23.4
07:55 1027 30.33 856 25.28 -25.7 -14.2 64 -30.6 -23.1
08:00 1027 30.33 856 25.28 -25.7 -14.3 65 -30.5 -23
08:05 1027 30.33 856 25.28 -25.8 -14.4 65 -30.6 -23.1
08:10 1027 30.33 856 25.28 -25.8 -14.4 65 -30.6 -23
08:15 1027 30.33 856 25.28 -25.8 -14.4 64 -30.7 -23.2
08:20 1027 30.33 856 25.28 -25.9 -14.5 63 -30.9 -23.6
08:25 1027 30.33 856 25.28 -25.9 -14.6 63 -30.9 -23.6
08:30 1027 30.33 856 25.28 -25.9 -14.6 64 -30.8 -23.4
08:35 1027 30.33 856 25.28 -25.9 -14.7 63 -31 -23.8
08:40 1027 30.33 856 25.28 -26 -14.7 63 -31.1 -24
08:45 1027 30.33 856 25.28 -26 -14.7 63 -31.1 -24
08:50 1027 30.33 856 25.28 -26 -14.8 63 -31.2 -24.1
08:55 1027 30.33 856 25.28 -26 -14.9 63 -31.2 -24.2
09:00 1027 30.33 856 25.28 -26.1 -14.9 62 -31.3 -24.4
09:05 1027 30.33 856 25.28 -26.1 -14.9 62 -31.4 -24.5
09:10 1027 30.33 857 25.31 -26 -14.9 62 -31.3 -24.3
09:15 1027 30.33 857 25.31 -26 -14.8 62 -31.2 -24.2
09:20 1028 30.36 857 25.31 -26 -14.7 61 -31.3 -24.4
09:25 1028 30.36 857 25.31 -25.9 -14.7 61 -31.3 -24.4
09:30 1028 30.36 857 25.31 -25.9 -14.7 61 -31.3 -24.3
09:35 1028 30.36 857 25.31 -25.7 -14.3 61 -31.3 -24.3
09:40 1028 30.36 857 25.31 -25.7 -14.2 59 -31.4 -24.6
09:45 1028 30.36 857 25.31 -25.5 -14 59 -31.4 -24.4
09:50 1028 30.36 857 25.31 -25.3 -13.6 58 -31.3 -24.4
09:55 1028 30.36 857 25.31 -25.1 -13.1 57 -31.4 -24.5
10:00 1028 30.36 857 25.31 -25.1 -13.1 57 -31.2 -24.2
10:05 1028 30.36 857 25.31 -24.9 -12.8 55 -31.4 -24.6
10:10 1028 30.36 857 25.31 -25 -12.9 55 -31.6 -24.8
10:15 1028 30.36 857 25.31 -25 -12.9 55 -31.7 -25
10:20 1028 30.36 857 25.31 -24.8 -12.6 54 -31.6 -24.9
10:25 1028 30.36 857 25.31 -24.7 -12.4 53 -31.7 -25
10:30 1028 30.36 857 25.31 -24.7 -12.5 53 -31.7 -25
10:35 1028 30.36 857 25.31 -24.5 -12.1 54 -31.4 -24.6
10:40 1028 30.36 857 25.31 -24.1 -11.3 52 -31.4 -24.5
10:45 1028 30.36 857 25.31 -24.4 -11.9 53 -31.4 -24.6
10:50 1028 30.36 857 25.31 -23.9 -11.1 52 -31.1 -24.1
10:55 1028 30.36 857 25.31 -23.7 -10.7 53 -30.8 -23.4
11:00 1028 30.36 857 25.31 -24.2 -11.5 56 -30.5 -23
11:05 1028 30.36 857 25.31 -24.5 -12 57 -30.6 -23.2
11:10 1028 30.36 857 25.31 -23.9 -11 56 -30.5 -22.8
11:15 1028 30.36 857 25.31 -23.9 -11.1 55 -30.6 -23.1
11:20 1028 30.36 857 25.31 -23.8 -10.8 55 -30.4 -22.8
11:25 1028 30.36 857 25.31 -24.2 -11.5 56 -30.6 -23.1
11:30 1028 30.36 857 25.31 -23.8 -10.8 58 -29.9 -21.8
11:35 1028 30.36 857 25.31 -23.3 -10 58 -29.4 -20.9
11:40 1028 30.36 857 25.31 -23.7 -10.6 58 -29.8 -21.6
11:45 1028 30.36 858 25.34 -24 -11.2 61 -29.5 -21.2
11:50 1028 30.36 858 25.34 -23.8 -10.9 60 -29.6 -21.2
11:55 1028 30.36 858 25.34 -23.3 -9.9 61 -28.9 -20
12:00 1028 30.36 857 25.31 -23.1 -9.6 57 -29.3 -20.8
12:05 1028 30.36 857 25.31 -23.5 -10.4 59 -29.5 -21.1
12:10 1028 30.36 857 25.31 -22.8 -9.1 57 -29.2 -20.5
12:15 1028 30.36 857 25.31 -22.4 -8.3 54 -29.3 -20.7
12:20 1028 30.36 857 25.31 -22.4 -8.2 52 -29.6 -21.4
12:25 1028 30.36 857 25.31 -23.5 -10.3 61 -29 -20.2
12:30 1028 30.36 857 25.31 -22.8 -9 53 -29.9 -21.8
12:35 1028 30.36 857 25.31 -23.6 -10.5 60 -29.4 -21
12:40 1028 30.36 857 25.31 -23.7 -10.6 61 -29.3 -20.7
12:45 1028 30.36 857 25.31 -22.8 -9 60 -28.6 -19.5
12:50 1028 30.36 857 25.31 -22.6 -8.7 57 -28.9 -20.1
12:55 1028 30.36 857 25.31 -21.7 -7.1 55 -28.5 -19.4
13:00 1028 30.36 857 25.31 -21.3 -6.4 53 -28.5 -19.3
13:05 1028 30.36 857 25.31 -21.2 -6.2 52 -28.6 -19.5
13:10 1028 30.36 857 25.31 -21.7 -7 56 -28.2 -18.8
13:15 1028 30.36 857 25.31 -22 -7.5 56 -28.5 -19.2
13:20 1028 30.36 857 25.31 -21.7 -7.1 54 -28.6 -19.6
13:25 1028 30.36 857 25.31 -21.7 -7 57 -28.1 -18.5
13:30 1028 30.36 857 25.31 -22.1 -7.8 57 -28.6 -19.4
13:35 1028 30.36 857 25.31 -22.4 -8.3 58 -28.7 -19.6
13:40 1027 30.33 857 25.31 -22.7 -8.8 61 -28.2 -18.8
13:45 1027 30.33 857 25.31 -22.3 -8.1 56 -28.9 -20.1
13:50 1027 30.33 857 25.31 -22.6 -8.7 59 -28.5 -19.4
13:55 1027 30.33 857 25.31 -21.9 -7.5 57 -28.3 -19
14:00 1027 30.33 856 25.28 -21.7 -7 54 -28.6 -19.4
14:05 1027 30.33 856 25.28 -22.5 -8.6 61 -28.2 -18.8
14:10 1027 30.33 856 25.28 -22.3 -8.1 58 -28.5 -19.2
14:15 1027 30.33 856 25.28 -21.7 -7.1 55 -28.4 -19.2
14:20 1027 30.33 856 25.28 -21.1 -6.1 55 -28 -18.4
14:25 1027 30.33 856 25.28 -20.8 -5.4 52 -28.4 -19
14:30 1027 30.33 856 25.28 -20.9 -5.6 54 -28 -18.4
14:35 1027 30.33 856 25.28 -20.7 -5.3 53 -28 -18.5
14:40 1027 30.33 856 25.28 -20.7 -5.3 52 -28.2 -18.8
14:45 1027 30.33 856 25.28 -21.2 -6.2 56 -27.8 -18.1
14:50 1027 30.33 856 25.28 -21.3 -6.3 53 -28.5 -19.4
14:55 1027 30.33 856 25.28 -21.5 -6.8 57 -27.9 -18.2
15:00 1027 30.33 856 25.28 -21.6 -6.9 55 -28.4 -19.1
15:05 1027 30.33 856 25.28 -20.6 -5 50 -28.4 -19.1
15:10 1027 30.33 856 25.28 -21.5 -6.8 57 -28 -18.4
15:15 1027 30.33 856 25.28 -21.1 -5.9 51 -28.7 -19.7
15:20 1027 30.33 856 25.28 -21.1 -6 51 -28.7 -19.7
15:25 1027 30.33 856 25.28 -21.1 -5.9 50 -28.9 -20.1
15:30 1027 30.33 856 25.28 -21.2 -6.1 53 -28.3 -19
15:35 1027 30.33 856 25.28 -21.4 -6.5 53 -28.6 -19.5
15:40 1027 30.33 856 25.28 -21.6 -6.9 54 -28.7 -19.6
15:45 1027 30.33 856 25.28 -21.1 -5.9 53 -28.4 -19.1
15:50 1026 30.3 856 25.28 -21.2 -6.1 52 -28.7 -19.7
15:55 1026 30.3 856 25.28 -21.4 -6.5 53 -28.5 -19.4
16:00 1026 30.3 856 25.28 -20.9 -5.7 52 -28.4 -19.2
16:05 1026 30.3 856 25.28 -21.5 -6.6 55 -28.3 -18.9
16:10 1026 30.3 856 25.28 -22.6 -8.7 57 -29 -20.3
16:15 1026 30.3 856 25.28 -22.6 -8.6 59 -28.5 -19.3
16:25 1026 30.3 856 25.28 -20.7 -5.3 53 -27.9 -18.2
16:30 1026 30.3 855 25.25 -21 -5.7 54 -28 -18.4
16:35 1026 30.3 855 25.25 -20.7 -5.2 51 -28.4 -19.1
16:40 1026 30.3 855 25.25 -21.2 -6.1 55 -28 -18.4
16:45 1026 30.3 855 25.25 -21.3 -6.3 55 -28 -18.4
16:50 1026 30.3 855 25.25 -21.3 -6.3 55 -28.1 -18.5
16:55 1026 30.3 855 25.25 -21.4 -6.5 54 -28.4 -19.1
17:00 1026 30.3 855 25.25 -21.6 -6.9 57 -28.1 -18.6
17:05 1026 30.3 855 25.25 -21.8 -7.2 57 -28.1 -18.6
17:10 1026 30.3 855 25.25 -21.6 -6.9 54 -28.7 -19.6
17:15 1026 30.3 855 25.25 -21.3 -6.3 53 -28.5 -19.3
17:20 1026 30.3 855 25.25 -21.3 -6.3 54 -28.3 -18.9
17:25 1026 30.3 855 25.25 -21.1 -6 54 -28.2 -18.7
17:30 1026 30.3 855 25.25 -21.6 -6.8 54 -28.7 -19.6
17:35 1026 30.3 855 25.25 -22.2 -7.9 58 -28.4 -19.1
17:40 1026 30.3 855 25.25 -21.9 -7.3 56 -28.4 -19.1
17:45 1026 30.3 855 25.25 -22.8 -9 59 -28.7 -19.7
17:50 1026 30.3 855 25.25 -23 -9.3 61 -28.6 -19.5
17:55 1026 30.3 855 25.25 -22.6 -8.7 60 -28.5 -19.2
18:00 1026 30.3 855 25.25 -23.8 -10.8 64 -28.9 -20
18:05 1026 30.3 855 25.25 -24 -11.1 64 -28.9 -20.1
18:10 1026 30.3 855 25.25 -24.1 -11.3 65 -29 -20.2
18:15 1026 30.3 855 25.25 -24.2 -11.5 65 -29 -20.2
18:20 1026 30.3 855 25.25 -23.9 -11.1 64 -29 -20.1
18:25 1026 30.3 855 25.25 -24 -11.3 66 -28.7 -19.6
18:30 1026 30.3 855 25.25 -24.2 -11.5 68 -28.5 -19.4
18:35 1026 30.3 855 25.25 -24.6 -12.2 69 -28.7 -19.7
18:40 1026 30.3 855 25.25 -24.7 -12.5 70 -28.7 -19.7
18:45 1026 30.3 855 25.25 -24.8 -12.6 70 -28.7 -19.7
18:50 1026 30.3 855 25.25 -24.8 -12.7 72 -28.6 -19.4
18:55 1026 30.3 855 25.25 -24.5 -12.1 71 -28.4 -19.1
19:00 1026 30.3 855 25.25 -24.1 -11.4 67 -28.7 -19.6
19:05 1026 30.3 855 25.25 -24.4 -12 69 -28.6 -19.5
19:10 1026 30.3 855 25.25 -24.7 -12.4 67 -29.1 -20.4
19:15 1026 30.3 855 25.25 -24.8 -12.6 64 -29.7 -21.5
19:20 1026 30.3 855 25.25 -25.1 -13.1 65 -29.8 -21.6
19:25 1026 30.3 855 25.25 -25.4 -13.6 69 -29.5 -21.1
19:30 1026 30.3 855 25.25 -25.6 -14 70 -29.5 -21.1
19:35 1026 30.3 855 25.25 -25.9 -14.6 71 -29.7 -21.5
19:40 1026 30.3 855 25.25 -26.2 -15.2 71 -30 -22
19:45 1026 30.3 855 25.25 -26.1 -14.9 70 -30 -22
19:50 1026 30.3 855 25.25 -25.9 -14.7 67 -30.4 -22.8
19:55 1026 30.3 855 25.25 -25.9 -14.6 65 -30.6 -23.1
20:00 1026 30.3 855 25.25 -25.9 -14.6 64 -30.8 -23.5
20:05 1026 30.3 855 25.25 -26 -14.7 63 -31 -23.8
20:10 1026 30.3 855 25.25 -26.1 -14.9 66 -30.7 -23.3
20:15 1026 30.3 855 25.25 -26.4 -15.5 66 -30.9 -23.7
20:20 1026 30.3 855 25.25 -26.4 -15.5 66 -30.9 -23.7
20:25 1026 30.3 855 25.25 -26.5 -15.6 66 -31.1 -23.9
20:30 1026 30.3 855 25.25 -26.6 -15.9 67 -31.1 -24
20:35 1026 30.3 855 25.25 -26.7 -16.1 66 -31.2 -24.2
20:40 1026 30.3 855 25.25 -26.8 -16.3 67 -31.3 -24.4
20:45 1026 30.3 855 25.25 -26.8 -16.3 66 -31.4 -24.4
20:50 1026 30.3 855 25.25 -26.7 -16.1 66 -31.3 -24.3
20:55 1026 30.3 855 25.25 -26.7 -16.1 66 -31.2 -24.2
21:00 1026 30.3 855 25.25 -26.9 -16.4 66 -31.4 -24.5
21:05 1026 30.3 855 25.25 -27 -16.6 66 -31.5 -24.7
21:10 1026 30.3 855 25.25 -27.2 -16.9 66 -31.7 -25
21:15 1026 30.3 855 25.25 -27.1 -16.8 66 -31.7 -25.1
21:20 1026 30.3 855 25.25 -27.2 -17 66 -31.7 -25.1
21:25 1026 30.3 855 25.25 -27.3 -17.2 67 -31.8 -25.2
21:30 1026 30.3 855 25.25 -27.3 -17.2 67 -31.7 -25.1
21:35 1026 30.3 855 25.25 -27.3 -17.1 67 -31.7 -25.1
21:40 1026 30.3 855 25.25 -27.4 -17.4 67 -31.8 -25.3
21:45 1026 30.3 855 25.25 -27.5 -17.4 66 -31.9 -25.5
21:50 1026 30.3 855 25.25 -27.5 -17.6 67 -32 -25.5
21:55 1026 30.3 855 25.25 -27.7 -17.9 67 -32 -25.7
22:00 1026 30.3 855 25.25 -27.7 -17.9 67 -32.2 -25.9
22:05 1026 30.3 855 25.25 -27.7 -17.9 66 -32.2 -25.9
22:10 1026 30.3 855 25.25 -27.7 -17.8 66 -32.3 -26.1
22:15 1026 30.3 855 25.25 -27.8 -18 67 -32.2 -26
22:20 1026 30.3 855 25.25 -27.8 -18 66 -32.3 -26.1
22:25 1026 30.3 855 25.25 -27.9 -18.2 67 -32.3 -26.1
22:30 1025 30.27 855 25.25 -27.9 -18.3 67 -32.3 -26.1
22:35 1025 30.27 855 25.25 -28 -18.3 67 -32.3 -26.1
22:40 1025 30.27 855 25.25 -28 -18.3 67 -32.3 -26.2
22:45 1025 30.27 854 25.22 -28 -18.4 68 -32.2 -26
22:50 1025 30.27 854 25.22 -28.1 -18.5 69 -32.2 -25.9
22:55 1025 30.27 854 25.22 -28.2 -18.8 68 -32.5 -26.4
23:00 1025 30.27 854 25.22 -28.3 -19 66 -32.9 -27.2
23:05 1025 30.27 854 25.22 -28.3 -19 65 -33 -27.3
23:10 1025 30.27 854 25.22 -28.2 -18.7 65 -32.8 -27
23:15 1025 30.27 854 25.22 -28.1 -18.5 66 -32.6 -26.7
23:20 1025 30.27 854 25.22 -28 -18.3 65 -32.7 -26.8
23:25 1025 30.27 854 25.22 -28 -18.5 65 -32.8 -27
23:30 1025 30.27 854 25.22 -28.1 -18.6 66 -32.6 -26.7
23:35 1025 30.27 854 25.22 -28.2 -18.8 64 -33 -27.4
23:40 1025 30.27 854 25.22 -28.3 -19 66 -32.9 -27.2
23:45 1025 30.27 854 25.22 -28.3 -19 64 -33.1 -27.6
23:50 1025 30.27 854 25.22 -28.3 -18.9 64 -33.1 -27.6
23:55 1025 30.27 854 25.22 -28.1 -18.7 65 -32.8 -27.1
24:00 1025 30.27 854 25.22 -28 -18.3 64 -32.7 -26.9